Time;durP1;ratioP1;P1;durP2;ratioP2;P2;SDS_P1;SDS_P2;PMS_P1;PMS_P2;Temp;Humidity;BMP_temperature;BMP_pressure;BME280_temperature;BME280_humidity;BME280_pressure;Samples;Min_cycle;Max_cycle;Signal;HPM_P1;HPM_P2
2023/05/02 00:01:57;;;;;;;34.65;19.58;;;;;;;10.90;100.00;102162.88;5063272;28;20471;-59
2023/05/02 00:04:23;;;;;;;35.55;20.27;;;;;;;10.91;100.00;102161.09;5067057;28;20020;-62
2023/05/02 00:06:48;;;;;;;32.63;20.25;;;;;;;10.94;100.00;102159.31;5064778;28;20051;-61
2023/05/02 00:09:14;;;;;;;32.03;19.30;;;;;;;11.01;100.00;102160.06;5066408;28;20024;-59
2023/05/02 00:11:40;;;;;;;30.98;18.85;;;;;;;11.04;100.00;102164.44;5066830;28;20490;-60
2023/05/02 00:14:05;;;;;;;31.48;20.13;;;;;;;11.07;100.00;102165.28;5064333;28;20146;-60
2023/05/02 00:16:30;;;;;;;37.15;20.08;;;;;;;11.06;100.00;102168.81;5064438;28;20036;-64
2023/05/02 00:18:56;;;;;;;31.17;17.80;;;;;;;11.09;100.00;102163.50;5065685;28;20067;-61
2023/05/02 00:21:21;;;;;;;32.47;18.02;;;;;;;11.13;100.00;102169.56;5065891;28;20067;-61
2023/05/02 00:23:46;;;;;;;22.80;15.35;;;;;;;11.16;100.00;102172.16;5066230;28;20060;-60
2023/05/02 00:26:12;;;;;;;23.30;14.00;;;;;;;11.15;100.00;102177.47;5066791;28;20023;-61
2023/05/02 00:28:37;;;;;;;18.00;10.65;;;;;;;11.08;100.00;102177.56;5067495;28;20085;-59
2023/05/02 00:31:06;;;;;;;16.35;10.88;;;;;;;11.18;100.00;102183.59;5068558;28;20116;-64
2023/05/02 00:33:31;;;;;;;17.58;9.10;;;;;;;11.21;100.00;102183.53;5070538;28;20112;-62
2023/05/02 00:35:56;;;;;;;19.27;8.23;;;;;;;11.20;100.00;102180.94;5070433;28;20107;-63
2023/05/02 00:38:22;;;;;;;12.73;6.38;;;;;;;11.15;100.00;102174.84;5069733;28;20060;-61
2023/05/02 00:40:50;;;;;;;9.48;6.22;;;;;;;11.03;100.00;102171.50;5062911;28;20021;-61
2023/05/02 00:43:15;;;;;;;15.75;5.53;;;;;;;11.13;100.00;102177.50;5070186;28;20471;-58
2023/05/02 00:45:42;;;;;;;12.90;5.65;;;;;;;11.18;100.00;102182.69;5070593;28;20024;-60
2023/05/02 00:48:08;;;;;;;15.45;6.35;;;;;;;11.21;100.00;102183.53;5068120;28;20021;-60
2023/05/02 00:50:36;;;;;;;16.08;6.68;;;;;;;11.20;100.00;102178.28;5069133;28;20055;-62
2023/05/02 00:53:03;;;;;;;12.40;6.38;;;;;;;11.22;100.00;102179.13;5064104;28;20103;-63
2023/05/02 00:55:28;;;;;;;18.13;7.28;;;;;;;11.09;100.00;102181.97;5050136;28;20064;-59
2023/05/02 00:57:54;;;;;;;16.13;8.07;;;;;;;11.22;100.00;102189.66;5050665;28;20021;-61
2023/05/02 01:00:19;;;;;;;16.98;6.82;;;;;;;11.14;100.00;102197.72;5062581;28;20811;-60
2023/05/02 01:02:52;;;;;;;16.02;6.00;;;;;;;11.09;100.00;102200.41;5063238;28;20379;-63
2023/05/02 01:05:25;;;;;;;20.23;5.13;;;;;;;10.96;100.00;102204.13;5066726;28;20090;-59
2023/05/02 01:08:09;;;;;;;18.13;4.63;;;;;;;11.00;100.00;102200.53;5067255;28;20041;-61
2023/05/02 01:10:35;;;;;;;11.48;3.95;;;;;;;10.87;100.00;102207.75;5067466;28;20029;-60
2023/05/02 01:13:11;;;;;;;14.05;3.97;;;;;;;10.92;100.00;102207.66;5140216;22;20498;-63
2023/05/02 01:15:38;;;;;;;12.88;3.67;;;;;;;10.87;100.00;102208.59;5048137;28;20112;-62
2023/05/02 01:18:05;;;;;;;14.27;3.30;;;;;;;10.94;100.00;102201.50;5052512;28;20024;-60
2023/05/02 01:20:32;;;;;;;15.10;3.45;;;;;;;10.87;100.00;102205.97;5051651;28;20465;-64
2023/05/02 01:23:02;;;;;;;13.95;2.95;;;;;;;10.96;100.00;102210.25;5066921;28;20033;-62
2023/05/02 01:25:49;;;;;;;5.30;2.47;;;;;;;11.00;100.00;102213.72;5051812;28;20066;-61
2023/05/02 01:28:31;;;;;;;14.73;3.40;;;;;;;10.98;100.00;102212.88;5069416;28;20032;-60
2023/05/02 01:30:56;;;;;;;16.98;3.22;;;;;;;10.83;100.00;102206.91;5064720;28;20031;-61
2023/05/02 01:33:23;;;;;;;18.58;4.72;;;;;;;10.89;100.00;102211.22;5068745;28;20032;-60
2023/05/02 01:35:50;;;;;;;13.18;2.92;;;;;;;10.89;100.00;102205.09;5067477;28;20024;-61
2023/05/02 01:38:17;;;;;;;13.23;3.47;;;;;;;10.97;100.00;102219.03;5065326;28;20523;-61
2023/05/02 01:40:44;;;;;;;14.50;3.45;;;;;;;10.87;100.00;102221.78;5069498;28;20107;-60
2023/05/02 01:43:11;;;;;;;13.00;3.25;;;;;;;10.90;100.00;102222.66;5047776;28;20072;-60
2023/05/02 01:45:38;;;;;;;30.67;4.30;;;;;;;10.75;100.00;102235.16;5066526;28;20077;-61
2023/05/02 01:48:05;;;;;;;27.20;4.47;;;;;;;10.77;100.00;102236.00;5066819;28;20040;-59
2023/05/02 01:50:30;;;;;;;19.42;4.40;;;;;;;10.78;100.00;102232.47;5066640;28;20721;-63
2023/05/02 01:52:57;;;;;;;20.20;4.07;;;;;;;10.68;100.00;102230.81;5065064;28;20115;-61
2023/05/02 01:55:23;;;;;;;25.92;3.88;;;;;;;10.83;100.00;102238.56;5067694;28;20339;-62
2023/05/02 01:57:49;;;;;;;17.85;3.92;;;;;;;10.82;100.00;102244.72;5067440;28;20595;-61
2023/05/02 02:00:18;;;;;;;17.02;4.25;;;;;;;10.79;100.00;102247.41;5067023;28;20047;-63
2023/05/02 02:02:45;;;;;;;16.00;3.47;;;;;;;10.68;100.00;102252.78;5064957;28;20409;-60
2023/05/02 02:05:11;;;;;;;19.88;3.92;;;;;;;10.75;100.00;102253.59;5049030;28;20047;-63
2023/05/02 02:07:37;;;;;;;19.23;3.05;;;;;;;10.68;100.00;102262.44;5066270;28;20024;-61
2023/05/02 02:10:02;;;;;;;14.68;2.90;;;;;;;10.68;100.00;102262.44;5066644;28;20037;-59
2023/05/02 02:13:08;;;;;;;10.77;2.88;;;;;;;10.65;100.00;102273.91;5067259;28;20667;-61
2023/05/02 02:15:34;;;;;;;14.95;2.85;;;;;;;10.70;100.00;102281.78;5009239;28;20124;-61
2023/05/02 02:18:11;;;;;;;12.90;2.20;;;;;;;10.49;100.00;102283.75;5009303;28;20063;-63
2023/05/02 02:20:38;;;;;;;11.20;2.42;;;;;;;10.57;100.00;102283.69;5027381;28;20029;-62
2023/05/02 02:23:05;;;;;;;13.65;2.20;;;;;;;10.51;100.00;102287.25;5026196;28;20060;-60
2023/05/02 02:25:31;;;;;;;8.65;2.25;;;;;;;10.65;100.00;102286.25;5040487;28;20027;-63
2023/05/02 02:27:57;;;;;;;11.27;2.30;;;;;;;10.54;100.00;102289.84;5066293;28;20021;-60
2023/05/02 02:30:22;;;;;;;7.45;2.35;;;;;;;10.50;100.00;102293.41;5067369;28;20040;-62
2023/05/02 02:32:47;;;;;;;9.20;2.10;;;;;;;10.45;100.00;102295.19;5067064;28;20090;-62
2023/05/02 02:35:13;;;;;;;5.32;1.85;;;;;;;10.53;100.00;102295.16;5067964;28;20082;-63
2023/05/02 02:38:04;;;;;;;8.55;2.78;;;;;;;10.51;100.00;102291.66;5066149;28;20028;-59
2023/05/02 02:40:45;;;;;;;8.27;1.70;;;;;;;10.42;100.00;102301.34;5066333;28;20056;-60
2023/05/02 02:43:26;;;;;;;6.78;1.80;;;;;;;10.46;100.00;102307.50;5067314;28;20029;-60
2023/05/02 02:46:00;;;;;;;7.00;1.80;;;;;;;10.42;100.00;102308.41;5061208;28;20037;-62
2023/05/02 02:48:31;;;;;;;4.40;1.70;;;;;;;10.43;100.00;102304.84;5047103;28;20122;-60
2023/05/02 02:51:14;;;;;;;7.63;1.88;;;;;;;10.43;100.00;102302.22;5047092;28;20021;-60
2023/05/02 02:53:45;;;;;;;11.60;1.90;;;;;;;10.46;100.00;102307.50;5046759;28;20378;-62
2023/05/02 02:56:21;;;;;;;13.00;1.80;;;;;;;10.33;100.00;102312.00;5046976;28;20033;-65
2023/05/02 02:59:04;;;;;;;9.93;1.85;;;;;;;10.39;100.00;102311.06;5052230;28;20055;-60
2023/05/02 03:01:31;;;;;;;6.80;1.40;;;;;;;10.42;100.00;102311.03;5067329;28;20059;-61
2023/05/02 03:03:57;;;;;;;8.40;1.77;;;;;;;10.34;100.00;102322.50;5065273;28;20027;-61
2023/05/02 03:06:22;;;;;;;5.47;1.85;;;;;;;10.28;100.00;102322.56;5064752;28;20021;-60
2023/05/02 03:08:48;;;;;;;8.45;1.65;;;;;;;10.21;100.00;102318.25;5065353;28;20025;-60
2023/05/02 03:11:13;;;;;;;11.05;2.47;;;;;;;10.34;100.00;102319.88;5063896;28;20089;-60
2023/05/02 03:13:38;;;;;;;10.95;1.63;;;;;;;10.39;100.00;102322.47;5065992;28;20040;-60
2023/05/02 03:16:28;;;;;;;10.05;1.58;;;;;;;10.43;100.00;102321.56;5066547;28;20028;-60
2023/05/02 03:18:54;;;;;;;6.70;1.85;;;;;;;10.43;100.00;102332.09;5065528;28;20024;-60
2023/05/02 03:21:19;;;;;;;12.02;2.25;;;;;;;10.35;100.00;102340.06;5067334;28;20056;-59
2023/05/02 03:23:45;;;;;;;6.88;2.00;;;;;;;10.30;100.00;102341.84;5065130;28;20081;-60
2023/05/02 03:26:10;;;;;;;7.40;1.95;;;;;;;10.31;100.00;102338.34;5064107;28;20017;-60
2023/05/02 03:28:35;;;;;;;5.75;1.83;;;;;;;10.32;100.00;102345.34;5067035;28;20040;-62
2023/05/02 03:31:01;;;;;;;7.03;1.80;;;;;;;10.29;100.00;102350.66;5066012;28;20021;-64
2023/05/02 03:33:26;;;;;;;13.45;2.00;;;;;;;10.10;100.00;102350.81;5067278;28;20024;-63
2023/05/02 03:35:52;;;;;;;18.85;2.60;;;;;;;9.94;100.00;102359.69;5067008;28;20054;-60
2023/05/02 03:38:17;;;;;;;9.27;2.00;;;;;;;9.90;100.00;102360.63;5060931;28;20028;-62
2023/05/02 03:40:43;;;;;;;11.80;2.20;;;;;;;9.91;100.00;102368.50;5066928;28;20028;-61
2023/05/02 03:43:08;;;;;;;11.13;3.22;;;;;;;9.91;100.00;102365.88;5065469;28;20024;-62
2023/05/02 03:45:33;;;;;;;9.68;2.35;;;;;;;9.85;100.00;102360.63;5066536;28;20052;-61
2023/05/02 03:47:59;;;;;;;7.15;1.88;;;;;;;9.91;100.00;102365.00;5066123;28;20099;-61
2023/05/02 03:50:25;;;;;;;7.68;1.70;;;;;;;9.85;100.00;102366.75;5065051;28;20043;-61
2023/05/02 03:52:50;;;;;;;4.88;1.73;;;;;;;9.97;100.00;102368.44;5059714;28;20016;-62
2023/05/02 03:55:15;;;;;;;8.93;1.85;;;;;;;10.02;100.00;102376.31;5065309;28;20032;-61
2023/05/02 03:57:41;;;;;;;9.68;2.40;;;;;;;10.09;100.00;102372.75;5066087;28;20082;-60
2023/05/02 04:00:07;;;;;;;6.40;1.67;;;;;;;10.06;100.00;102383.28;5062164;28;20059;-60
2023/05/02 04:02:32;;;;;;;6.53;2.03;;;;;;;10.04;100.00;102386.84;5065505;28;20017;-59
2023/05/02 04:04:58;;;;;;;4.72;1.42;;;;;;;10.04;100.00;102390.34;5065931;28;20028;-61
2023/05/02 04:07:24;;;;;;;9.63;1.80;;;;;;;10.02;100.00;102397.38;5063627;28;20086;-59
2023/05/02 04:09:50;;;;;;;8.13;1.92;;;;;;;10.19;100.00;102393.75;5066827;28;20036;-61
2023/05/02 04:12:15;;;;;;;5.50;1.60;;;;;;;10.07;100.00;102392.09;5066312;28;20029;-60
2023/05/02 04:14:40;;;;;;;10.07;1.95;;;;;;;9.99;100.00;102392.13;5061117;28;20045;-60
2023/05/02 04:17:06;;;;;;;6.05;1.85;;;;;;;10.10;100.00;102387.69;5065620;28;20103;-60
2023/05/02 04:19:31;;;;;;;8.30;1.90;;;;;;;10.14;100.00;102398.19;5065210;28;20023;-61
2023/05/02 04:21:57;;;;;;;7.35;2.00;;;;;;;10.07;100.00;102392.09;5059339;28;20067;-62
2023/05/02 04:24:22;;;;;;;11.00;1.92;;;;;;;10.03;100.00;102399.16;5061862;28;20074;-60
2023/05/02 04:26:47;;;;;;;7.13;2.15;;;;;;;10.00;100.00;102396.53;5050288;28;20374;-60
2023/05/02 04:29:13;;;;;;;10.55;2.13;;;;;;;10.06;100.00;102401.72;5040691;28;20503;-60
2023/05/02 04:31:39;;;;;;;9.10;2.10;;;;;;;10.03;100.00;102406.16;5041522;28;20018;-60
2023/05/02 04:34:05;;;;;;;9.63;2.25;;;;;;;10.11;100.00;102407.88;5046083;28;20017;-61
2023/05/02 04:36:30;;;;;;;7.82;1.73;;;;;;;10.08;100.00;102412.25;5045583;28;20281;-64
2023/05/02 04:38:56;;;;;;;9.93;1.88;;;;;;;10.04;100.00;102421.06;5045968;28;20024;-59
2023/05/02 04:41:22;;;;;;;11.82;2.15;;;;;;;10.08;100.00;102430.69;5046033;28;20033;-61
2023/05/02 04:43:47;;;;;;;9.00;1.83;;;;;;;10.14;100.00;102435.06;5045562;28;20028;-61
2023/05/02 04:46:12;;;;;;;6.97;2.00;;;;;;;10.17;100.00;102435.06;5044684;28;20028;-60
2023/05/02 04:48:41;;;;;;;14.48;2.20;;;;;;;10.12;100.00;102445.63;5044409;28;20021;-62
2023/05/02 04:51:07;;;;;;;8.32;2.42;;;;;;;10.11;100.00;102446.47;5046557;28;20108;-60
2023/05/02 04:53:32;;;;;;;9.90;2.58;;;;;;;10.09;100.00;102457.03;5043584;28;20074;-60
2023/05/02 04:55:58;;;;;;;12.85;2.15;;;;;;;10.05;100.00;102457.09;5045506;28;20108;-59
2023/05/02 04:58:23;;;;;;;12.55;2.33;;;;;;;10.08;100.00;102457.03;5046083;28;20021;-60
2023/05/02 05:00:48;;;;;;;13.73;2.92;;;;;;;10.13;100.00;102459.66;5048357;28;20016;-60
2023/05/02 05:03:14;;;;;;;12.80;2.47;;;;;;;10.03;100.00;102461.47;5046781;28;20057;-62
2023/05/02 05:05:39;;;;;;;9.88;2.42;;;;;;;10.07;100.00;102463.19;5044140;28;20021;-61
2023/05/02 05:08:04;;;;;;;8.88;2.20;;;;;;;9.72;100.00;102470.38;5044474;28;20048;-61
2023/05/02 05:10:30;;;;;;;10.80;2.10;;;;;;;9.69;100.00;102462.53;5046981;28;20033;-60
2023/05/02 05:12:55;;;;;;;9.73;2.00;;;;;;;9.75;100.00;102464.25;5044140;28;20057;-60
2023/05/02 05:15:22;;;;;;;11.98;2.67;;;;;;;9.73;100.00;102464.25;5061761;28;20110;-64
2023/05/02 05:17:48;;;;;;;10.60;2.20;;;;;;;9.75;100.00;102475.63;5067855;28;20028;-62
2023/05/02 05:20:13;;;;;;;10.82;3.05;;;;;;;9.71;100.00;102476.53;5066065;28;20025;-62
2023/05/02 05:22:40;;;;;;;12.10;2.65;;;;;;;9.93;100.00;102473.81;5068691;28;20377;-60
2023/05/02 05:25:06;;;;;;;15.18;2.53;;;;;;;9.99;100.00;102474.66;5069686;28;20025;-60
2023/05/02 05:27:32;;;;;;;11.18;2.25;;;;;;;9.89;100.00;102490.50;5058042;28;20112;-61
2023/05/02 05:29:58;;;;;;;10.45;2.50;;;;;;;9.80;100.00;102484.41;5029665;28;20040;-61
2023/05/02 05:32:24;;;;;;;7.78;2.80;;;;;;;9.89;100.00;102490.50;5028137;28;20026;-64
2023/05/02 05:34:53;;;;;;;24.45;5.57;;;;;;;9.96;100.00;102494.84;5029536;28;20120;-59
2023/05/02 05:37:19;;;;;;;10.65;2.47;;;;;;;10.03;100.00;102496.59;5027289;28;20522;-59
2023/05/02 05:39:44;;;;;;;12.07;3.33;;;;;;;9.99;100.00;102506.25;5035156;28;20047;-58
2023/05/02 05:42:10;;;;;;;13.85;3.22;;;;;;;9.90;100.00;102511.56;5068515;28;20416;-61
2023/05/02 05:44:35;;;;;;;16.80;3.40;;;;;;;9.84;100.00;102512.47;5068924;28;20036;-60
2023/05/02 05:47:01;;;;;;;13.27;2.50;;;;;;;10.02;100.00;102508.00;5066594;28;20082;-62
2023/05/02 05:49:26;;;;;;;11.30;2.58;;;;;;;9.96;100.00;102516.78;5070033;28;20076;-60
2023/05/02 05:51:52;;;;;;;13.80;3.03;;;;;;;9.95;100.00;102524.69;5068782;28;20042;-61
2023/05/02 05:54:17;;;;;;;13.95;2.80;;;;;;;10.20;100.00;102514.03;5064514;28;20032;-62
2023/05/02 05:56:43;;;;;;;12.18;2.58;;;;;;;10.19;100.00;102530.75;5028940;28;20724;-60
2023/05/02 05:59:08;;;;;;;12.27;2.50;;;;;;;10.35;100.00;102539.44;5010511;28;20080;-61
2023/05/02 06:01:34;;;;;;;12.77;2.70;;;;;;;10.31;100.00;102535.94;5029075;28;20036;-60
2023/05/02 06:04:00;;;;;;;11.35;2.20;;;;;;;10.28;100.00;102543.88;5038231;28;20402;-61
2023/05/02 06:06:26;;;;;;;22.63;3.60;;;;;;;10.18;100.00;102552.72;5032099;28;20033;-60
2023/05/02 06:08:51;;;;;;;15.77;2.67;;;;;;;10.23;100.00;102556.19;5052018;28;20021;-63
2023/05/02 06:11:17;;;;;;;12.73;2.78;;;;;;;10.24;100.00;102558.81;5061280;28;20020;-60
2023/05/02 06:13:42;;;;;;;10.48;2.97;;;;;;;10.34;100.00;102562.28;5068128;28;20070;-61
2023/05/02 06:16:07;;;;;;;19.92;3.17;;;;;;;10.51;100.00;102558.72;5067658;28;20112;-60
2023/05/02 06:18:33;;;;;;;20.42;2.80;;;;;;;10.62;100.00;102563.91;5058079;28;20096;-61
2023/05/02 06:21:02;;;;;;;11.35;2.83;;;;;;;10.71;100.00;102565.59;5039844;28;20147;-60
2023/05/02 06:23:28;;;;;;;16.77;3.78;;;;;;;10.54;100.00;102571.00;5065110;28;20025;-62
2023/05/02 06:25:54;;;;;;;14.20;2.60;;;;;;;10.44;100.00;102571.00;5036785;28;20026;-60
2023/05/02 06:28:19;;;;;;;19.05;2.67;;;;;;;10.42;100.00;102577.19;5036592;28;20033;-61
2023/05/02 06:30:45;;;;;;;22.88;3.60;;;;;;;10.65;100.00;102573.56;5035548;28;20052;-61
2023/05/02 06:33:11;;;;;;;16.40;3.10;;;;;;;10.78;100.00;102580.53;5037050;28;20021;-59
2023/05/02 06:35:36;;;;;;;19.83;3.08;;;;;;;10.80;100.00;102584.00;5051478;28;20033;-60
2023/05/02 06:38:01;;;;;;;16.92;3.58;;;;;;;10.31;100.00;102595.66;5033245;28;20017;-62
2023/05/02 06:40:27;;;;;;;13.77;2.72;;;;;;;10.36;100.00;102594.75;5033517;28;20040;-61
2023/05/02 06:42:52;;;;;;;11.73;3.05;;;;;;;10.70;100.00;102599.03;5036458;28;20021;-60
2023/05/02 06:45:17;;;;;;;15.77;2.45;;;;;;;10.84;100.00;102603.34;5025991;28;20030;-62
2023/05/02 06:47:43;;;;;;;15.43;2.92;;;;;;;10.65;100.00;102621.03;5048110;28;20024;-60
2023/05/02 06:50:09;;;;;;;11.15;2.45;;;;;;;10.77;100.00;102620.09;5068231;28;20465;-59
2023/05/02 06:52:34;;;;;;;11.20;2.40;;;;;;;10.85;100.00;102623.53;5066180;28;20118;-59
2023/05/02 06:54:59;;;;;;;16.27;2.30;;;;;;;10.90;99.24;102624.41;5067856;28;20048;-61
2023/05/02 06:57:25;;;;;;;10.90;2.22;;;;;;;10.67;99.67;102624.50;5068431;28;20055;-61
2023/05/02 06:59:50;;;;;;;9.75;2.00;;;;;;;10.61;100.00;102625.44;5064026;28;20521;-61
2023/05/02 07:02:15;;;;;;;12.10;2.08;;;;;;;10.87;96.83;102624.41;5066634;28;20107;-61
2023/05/02 07:04:40;;;;;;;9.55;2.15;;;;;;;10.95;96.63;102624.34;5040393;28;20109;-58
2023/05/02 07:07:06;;;;;;;10.95;2.20;;;;;;;10.65;96.12;102634.22;5031058;28;20112;-62
2023/05/02 07:09:31;;;;;;;10.13;2.72;;;;;;;10.60;98.31;102639.50;5040958;28;20061;-61
2023/05/02 07:11:57;;;;;;;4.60;2.20;;;;;;;10.59;99.48;102635.97;5044628;28;20021;-60
2023/05/02 07:14:22;;;;;;;13.55;2.60;;;;;;;10.86;99.54;102635.81;5053717;28;20114;-60
2023/05/02 07:16:47;;;;;;;14.40;2.72;;;;;;;10.99;98.00;102645.41;5042789;28;20052;-62
2023/05/02 07:19:13;;;;;;;9.15;2.97;;;;;;;11.20;98.03;102645.28;5034297;28;20017;-62
2023/05/02 07:21:38;;;;;;;8.23;2.17;;;;;;;10.95;100.00;102646.31;5034025;28;20107;-60
2023/05/02 07:24:04;;;;;;;6.57;2.00;;;;;;;10.96;100.00;102647.22;5040072;28;20044;-62
2023/05/02 07:26:29;;;;;;;9.30;2.70;;;;;;;10.53;100.00;102649.19;5062728;28;20040;-61
2023/05/02 07:28:55;;;;;;;6.97;2.08;;;;;;;10.69;100.00;102651.75;5043897;28;20033;-62
2023/05/02 07:31:20;;;;;;;5.60;1.98;;;;;;;10.82;98.29;102658.72;5033385;28;20035;-61
2023/05/02 07:33:45;;;;;;;12.75;2.28;;;;;;;10.83;98.82;102660.47;5033640;28;20021;-59
2023/05/02 07:36:10;;;;;;;11.13;2.38;;;;;;;10.86;95.46;102663.09;5035642;28;20032;-61
2023/05/02 07:38:36;;;;;;;6.47;2.00;;;;;;;10.78;95.27;102666.66;5042780;28;20033;-60
2023/05/02 07:41:01;;;;;;;10.88;2.33;;;;;;;10.79;94.78;102671.91;5043125;28;20029;-62
2023/05/02 07:43:27;;;;;;;9.35;2.58;;;;;;;11.07;94.39;102674.38;5036411;28;20025;-60
2023/05/02 07:45:52;;;;;;;9.95;2.10;;;;;;;10.87;94.23;102679.78;5058316;28;20485;-62
2023/05/02 07:48:17;;;;;;;12.25;2.10;;;;;;;10.80;95.78;102678.94;5042806;28;20041;-60
2023/05/02 07:50:43;;;;;;;9.20;1.95;;;;;;;10.99;92.08;102673.56;5035626;28;20035;-60
2023/05/02 07:53:08;;;;;;;8.50;1.98;;;;;;;11.18;89.75;102682.25;5033920;28;20569;-65
2023/05/02 07:55:33;;;;;;;7.90;1.98;;;;;;;11.38;90.56;102681.22;5029181;28;20018;-60
2023/05/02 07:57:59;;;;;;;5.30;1.90;;;;;;;11.57;91.35;102681.06;5042518;28;20111;-63
2023/05/02 08:00:25;;;;;;;17.98;2.65;;;;;;;11.60;92.80;102691.59;5064548;28;20913;-61
2023/05/02 08:02:50;;;;;;;7.03;2.03;;;;;;;12.06;90.30;102689.41;5062126;28;20849;-62
2023/05/02 08:05:15;;;;;;;7.35;2.30;;;;;;;12.15;88.56;102697.28;5032724;28;20463;-61
2023/05/02 08:07:41;;;;;;;10.30;1.95;;;;;;;11.66;86.25;102688.91;5034812;28;20032;-61
2023/05/02 08:10:08;;;;;;;9.32;2.47;;;;;;;11.72;86.92;102690.63;5034997;28;20078;-59
2023/05/02 08:12:40;;;;;;;8.90;2.20;;;;;;;12.13;84.31;102694.63;5036087;28;20360;-61
2023/05/02 08:15:06;;;;;;;3.15;1.60;;;;;;;12.26;79.74;102697.16;5044072;28;20075;-59
2023/05/02 08:17:32;;;;;;;6.63;1.85;;;;;;;12.17;81.88;102694.63;5045159;28;20142;-60
2023/05/02 08:19:57;;;;;;;9.05;2.22;;;;;;;12.12;82.62;102699.94;5050762;28;20032;-61
2023/05/02 08:22:22;;;;;;;6.82;2.00;;;;;;;12.17;80.30;102703.44;5063822;28;20035;-59
2023/05/02 08:24:48;;;;;;;6.90;1.58;;;;;;;12.34;78.30;102705.00;5063865;28;20104;-60
2023/05/02 08:27:13;;;;;;;8.63;1.63;;;;;;;12.31;75.30;102708.53;5064103;28;20043;-60
2023/05/02 08:29:38;;;;;;;4.70;1.45;;;;;;;12.49;74.46;102711.84;5065069;28;20031;-60
2023/05/02 08:32:04;;;;;;;9.70;1.77;;;;;;;12.47;75.15;102711.03;5054364;28;20028;-61
2023/05/02 08:34:29;;;;;;;6.03;1.60;;;;;;;12.53;74.90;102716.25;5063461;28;20051;-60
2023/05/02 08:36:55;;;;;;;4.00;1.52;;;;;;;12.22;75.85;102719.25;5040452;28;20362;-60
2023/05/02 08:39:20;;;;;;;6.85;1.63;;;;;;;12.23;76.50;102723.63;5031499;28;20061;-60
2023/05/02 08:41:45;;;;;;;6.75;1.70;;;;;;;12.20;75.41;102726.28;5032164;28;20025;-59
2023/05/02 08:44:11;;;;;;;7.35;1.50;;;;;;;12.25;75.37;102732.38;5045131;28;20020;-63
2023/05/02 08:46:40;;;;;;;5.28;1.90;;;;;;;12.39;74.17;102734.91;5042177;28;20043;-63
2023/05/02 08:49:05;;;;;;;4.00;1.65;;;;;;;12.33;74.09;102733.19;5036372;28;20458;-61
2023/05/02 08:51:31;;;;;;;5.18;1.20;;;;;;;12.27;75.47;102733.25;5040715;28;20017;-63
2023/05/02 08:53:57;;;;;;;5.93;1.45;;;;;;;11.88;77.49;102729.22;5037477;28;20021;-62
2023/05/02 08:56:24;;;;;;;7.20;1.73;;;;;;;11.69;77.17;102732.88;5039092;28;20093;-62
2023/05/02 08:58:49;;;;;;;4.22;1.60;;;;;;;11.89;75.00;102730.06;5064499;28;20012;-59
2023/05/02 09:01:17;;;;;;;32.42;4.00;;;;;;;11.74;75.89;102731.09;5045753;28;20074;-59
2023/05/02 09:03:44;;;;;;;2.97;1.30;;;;;;;11.78;73.62;102732.81;5046585;28;20029;-60
2023/05/02 09:06:12;;;;;;;19.20;1.92;;;;;;;11.76;74.72;102739.88;5048001;28;20029;-60
2023/05/02 09:08:39;;;;;;;8.40;1.67;;;;;;;11.43;73.55;102742.75;5038507;28;20029;-59
2023/05/02 09:11:05;;;;;;;9.82;1.38;;;;;;;11.52;76.50;102736.53;5062094;28;20040;-61
2023/05/02 09:13:37;;;;;;;9.32;1.98;;;;;;;11.82;73.68;102744.22;5047101;28;20041;-64
2023/05/02 09:16:05;;;;;;;3.25;1.42;;;;;;;12.15;72.83;102758.03;5030688;28;20067;-60
2023/05/02 09:18:33;;;;;;;5.82;1.90;;;;;;;11.88;71.54;102750.34;5027818;28;20025;-63
2023/05/02 09:21:00;;;;;;;23.30;2.58;;;;;;;12.11;72.81;102749.28;5028251;28;20021;-62
2023/05/02 09:23:38;;;;;;;6.20;1.63;;;;;;;12.53;70.39;102752.38;5046557;28;20482;-59
2023/05/02 09:26:11;;;;;;;8.82;1.80;;;;;;;12.73;71.46;102757.41;5047665;28;20114;-60
2023/05/02 09:29:01;;;;;;;7.50;1.83;;;;;;;12.82;68.39;102753.81;5046514;28;20067;-61
2023/05/02 09:31:29;;;;;;;6.45;1.90;;;;;;;12.92;69.04;102760.72;5044277;28;20033;-61
2023/05/02 09:33:55;;;;;;;6.88;2.03;;;;;;;12.72;71.31;102763.59;5049532;28;20025;-61
2023/05/02 09:36:21;;;;;;;5.20;1.55;;;;;;;12.47;67.64;102758.63;5064172;28;20029;-61
2023/05/02 09:38:49;;;;;;;2.90;1.48;;;;;;;12.56;69.14;102768.22;5066790;28;20024;-60
2023/05/02 09:41:15;;;;;;;3.50;1.48;;;;;;;12.02;68.81;102765.19;5061418;28;20116;-61
2023/05/02 09:43:40;;;;;;;6.10;1.40;;;;;;;12.04;71.16;102767.81;5064026;28;20100;-61
2023/05/02 09:46:08;;;;;;;68.00;6.03;;;;;;;12.13;73.23;102767.75;5049294;28;20021;-63
2023/05/02 09:48:57;;;;;;;29.63;3.20;;;;;;;12.36;69.54;102767.53;5053527;28;20642;-62
2023/05/02 09:51:24;;;;;;;5.18;1.83;;;;;;;12.57;67.13;102765.53;5043983;28;20029;-62
2023/05/02 09:53:51;;;;;;;9.05;2.67;;;;;;;12.01;69.15;102776.63;5038752;28;20102;-60
2023/05/02 09:56:17;;;;;;;8.40;2.03;;;;;;;12.21;69.12;102772.97;5051724;28;20458;-60
2023/05/02 09:58:42;;;;;;;8.13;2.20;;;;;;;11.67;72.76;102775.16;5048626;28;20041;-60
2023/05/02 10:01:14;;;;;;;36.42;4.22;;;;;;;11.81;72.14;102779.44;5035457;28;20017;-60
2023/05/02 10:03:40;;;;;;;3.65;1.73;;;;;;;11.93;69.48;102781.13;5033750;28;20026;-57
2023/05/02 10:06:07;;;;;;;6.55;2.10;;;;;;;11.98;70.79;102777.53;5028245;28;20533;-62
2023/05/02 10:08:32;;;;;;;4.88;1.73;;;;;;;12.06;68.83;102777.47;5052724;28;20060;-61
2023/05/02 10:10:59;;;;;;;21.85;2.90;;;;;;;12.01;70.26;102779.28;5057575;28;20057;-60
2023/05/02 10:13:31;;;;;;;6.05;1.70;;;;;;;12.31;70.61;102781.69;5038367;28;20756;-62
2023/05/02 10:16:01;;;;;;;6.53;2.42;;;;;;;12.18;69.50;102776.53;5037146;28;20024;-61
2023/05/02 10:18:38;;;;;;;5.60;1.55;;;;;;;12.62;65.04;102784.88;5037730;28;20037;-61
2023/05/02 10:21:11;;;;;;;7.03;2.00;;;;;;;12.77;64.03;102782.97;5050469;28;20029;-60
2023/05/02 10:23:40;;;;;;;5.40;1.75;;;;;;;13.04;62.77;102791.44;5033821;28;20482;-61
2023/05/02 10:26:05;;;;;;;42.72;5.20;;;;;;;13.01;63.72;102786.19;5040931;28;20041;-60
2023/05/02 10:28:31;;;;;;;6.78;2.10;;;;;;;12.69;63.81;102782.16;5048919;28;20071;-60
2023/05/02 10:30:57;;;;;;;15.25;3.00;;;;;;;12.86;62.96;102784.59;5050663;28;20497;-63
2023/05/02 10:33:22;;;;;;;16.15;2.47;;;;;;;12.99;63.17;102794.16;5063364;28;20032;-60
2023/05/02 10:35:48;;;;;;;5.15;2.00;;;;;;;13.27;62.72;102799.06;5047142;28;20025;-63
2023/05/02 10:38:18;;;;;;;4.47;1.77;;;;;;;13.85;59.96;102787.63;5050391;28;20032;-61
2023/05/02 10:40:47;;;;;;;4.80;2.42;;;;;;;14.02;58.30;102787.34;5038073;28;20426;-61
2023/05/02 10:43:15;;;;;;;5.70;1.90;;;;;;;13.97;59.00;102786.53;5043964;28;20390;-61
2023/05/02 10:45:40;;;;;;;7.25;2.40;;;;;;;13.48;62.08;102789.06;5053523;28;20033;-61
2023/05/02 10:48:14;;;;;;;4.28;1.95;;;;;;;13.72;59.68;102800.22;5045081;28;20086;-59
2023/05/02 10:50:50;;;;;;;8.07;2.08;;;;;;;13.85;57.87;102800.88;5042546;28;20549;-60
2023/05/02 10:53:23;;;;;;;8.68;2.13;;;;;;;13.96;59.36;102792.75;5038253;28;20032;-59
2023/05/02 10:56:07;;;;;;;5.45;2.15;;;;;;;14.07;58.63;102787.28;5054109;28;20112;-60
2023/05/02 10:58:33;;;;;;;5.25;2.28;;;;;;;13.85;59.44;102784.97;5052593;28;20105;-62
2023/05/02 11:01:26;;;;;;;6.70;2.28;;;;;;;13.69;64.05;102788.81;5040497;28;20029;-59
2023/05/02 11:03:56;;;;;;;4.63;2.47;;;;;;;13.68;59.58;102801.16;5031851;28;20056;-60
2023/05/02 11:06:26;;;;;;;8.82;2.05;;;;;;;13.92;62.82;102793.72;5040179;28;20033;-60
2023/05/02 11:08:52;;;;;;;9.10;2.88;;;;;;;13.87;61.77;102791.13;5062716;28;20109;-62
2023/05/02 11:11:45;;;;;;;4.80;1.95;;;;;;;13.88;62.00;102795.53;5035086;28;20305;-60
2023/05/02 11:14:31;;;;;;;4.72;2.53;;;;;;;14.15;62.32;102798.59;5033789;28;20037;-60
2023/05/02 11:17:00;;;;;;;5.55;2.92;;;;;;;13.74;62.96;102810.78;5036068;28;20029;-61
2023/05/02 11:19:29;;;;;;;5.97;2.40;;;;;;;14.23;58.09;102806.44;5048295;28;20036;-61